createdAt,value
2022-09-21T00:01:28.977Z,47.72
2022-09-21T00:03:59.003Z,48.65
2022-09-21T00:06:29.060Z,49.29
2022-09-21T00:08:58.962Z,49.45
2022-09-21T00:11:29.658Z,50.28
2022-09-21T00:14:01.046Z,50.80
2022-09-21T00:16:30.246Z,51.07
2022-09-21T00:18:58.643Z,51.31
2022-09-21T00:21:28.386Z,50.80
2022-09-21T00:23:59.424Z,50.95
2022-09-21T00:26:28.901Z,50.93
2022-09-21T00:28:58.927Z,51.36
2022-09-21T00:31:28.881Z,51.44
2022-09-21T00:33:58.467Z,51.93
2022-09-21T00:36:27.656Z,52.45
2022-09-21T00:38:59.818Z,52.56
2022-09-21T00:41:29.085Z,53.52
2022-09-21T00:44:27.299Z,53.35
2022-09-21T00:46:58.107Z,53.49
2022-09-21T00:49:28.687Z,54.47
2022-09-21T00:52:00.369Z,54.48
2022-09-21T00:54:33.843Z,54.80
2022-09-21T00:57:03.146Z,54.74
2022-09-21T00:59:33.528Z,54.85
2022-09-21T01:02:02.364Z,55.51
2022-09-21T01:04:31.766Z,55.59
2022-09-21T01:07:04.202Z,55.98
2022-09-21T01:09:34.594Z,55.44
2022-09-21T01:12:17.961Z,55.79
2022-09-21T01:15:07.215Z,55.65
2022-09-21T01:17:44.405Z,55.81
2022-09-21T01:20:29.339Z,56.29
2022-09-21T01:23:11.209Z,56.04
2022-09-21T01:25:53.257Z,56.62
2022-09-21T01:28:30.532Z,56.74
2022-09-21T01:31:06.152Z,56.69
2022-09-21T01:33:40.826Z,56.21
2022-09-21T01:36:15.165Z,56.26
2022-09-21T01:38:46.594Z,56.17
2022-09-21T01:41:17.528Z,56.62
2022-09-21T01:43:50.460Z,56.49
2022-09-21T01:46:23.213Z,56.78
2022-09-21T01:48:56.048Z,56.76
2022-09-21T01:51:29.665Z,56.83
2022-09-21T01:54:03.275Z,56.77
2022-09-21T01:56:37.303Z,56.66
2022-09-21T01:59:18.071Z,57.35
2022-09-21T02:01:53.379Z,57.05
2022-09-21T02:04:21.817Z,56.32
2022-09-21T02:06:52.176Z,56.26
2022-09-21T02:09:21.039Z,56.28
2022-09-21T02:11:49.235Z,56.12
2022-09-21T02:14:21.606Z,55.99
2022-09-21T02:17:02.657Z,56.54
2022-09-21T02:19:38.284Z,56.39
2022-09-21T02:22:12.892Z,56.22
2022-09-21T02:24:43.699Z,55.10
2022-09-21T02:27:25.608Z,55.18
2022-09-21T02:30:03.443Z,55.08
2022-09-21T02:32:39.597Z,55.35
2022-09-21T02:35:15.848Z,55.48
2022-09-21T02:37:52.108Z,54.97
2022-09-21T02:40:26.867Z,55.11
2022-09-21T02:42:58.229Z,55.38
2022-09-21T02:45:29.552Z,55.55
2022-09-21T02:48:04.600Z,56.28
2022-09-21T02:50:37.822Z,56.65
2022-09-21T02:53:08.895Z,57.01
2022-09-21T02:55:37.433Z,57.90
2022-09-21T02:58:09.109Z,58.23
2022-09-21T03:00:38.192Z,58.55
2022-09-21T03:03:18.418Z,58.67
2022-09-21T03:05:49.065Z,58.96
2022-09-21T03:08:17.379Z,58.81
2022-09-21T03:10:46.296Z,59.06
2022-09-21T03:13:15.214Z,59.12
2022-09-21T03:15:43.990Z,58.79
2022-09-21T03:18:13.696Z,57.50
2022-09-21T03:20:47.135Z,56.48
2022-09-21T03:23:16.024Z,57.00
2022-09-21T03:25:45.680Z,56.07
2022-09-21T03:28:14.745Z,55.84
2022-09-21T03:30:44.146Z,55.19
2022-09-21T03:33:12.996Z,54.87
2022-09-21T03:35:42.840Z,54.75
2022-09-21T03:38:11.348Z,54.68
2022-09-21T03:40:39.633Z,55.05
2022-09-21T03:43:07.933Z,55.09
2022-09-21T03:45:36.204Z,55.19
2022-09-21T03:48:04.506Z,55.43
2022-09-21T03:50:32.718Z,55.34
2022-09-21T03:53:02.410Z,55.71
2022-09-21T03:55:31.723Z,56.33
2022-09-21T03:58:00.065Z,56.63
2022-09-21T04:00:28.359Z,57.01
2022-09-21T04:02:56.960Z,57.42
2022-09-21T04:05:25.496Z,57.38
2022-09-21T04:07:55.999Z,57.84
2022-09-21T04:10:29.356Z,57.64
2022-09-21T04:12:59.404Z,57.87
2022-09-21T04:15:27.607Z,57.94
2022-09-21T04:17:55.913Z,57.93
2022-09-21T04:20:24.731Z,57.82
2022-09-21T04:22:53.076Z,57.86
2022-09-21T04:25:21.716Z,58.03
2022-09-21T04:27:52.322Z,59.00
2022-09-21T04:30:20.627Z,59.44
2022-09-21T04:32:48.913Z,59.36
2022-09-21T04:35:17.315Z,59.25
2022-09-21T04:37:45.618Z,58.83
2022-09-21T04:40:13.946Z,58.46
2022-09-21T04:42:42.160Z,57.97
2022-09-21T04:45:12.649Z,57.46
2022-09-21T04:47:40.969Z,56.88
2022-09-21T04:50:10.080Z,57.04
2022-09-21T04:52:38.412Z,57.44
2022-09-21T04:55:07.584Z,57.52
2022-09-21T04:57:36.580Z,57.87
2022-09-21T05:00:05.711Z,58.35
2022-09-21T05:02:35.387Z,58.83
2022-09-21T05:05:03.647Z,59.42
2022-09-21T05:07:31.868Z,59.55
2022-09-21T05:10:05.151Z,60.08
2022-09-21T05:12:37.540Z,60.77
2022-09-21T05:15:09.056Z,61.03
2022-09-21T05:17:38.790Z,61.48
2022-09-21T05:20:07.989Z,61.92
2022-09-21T05:22:36.268Z,62.06
2022-09-21T05:25:05.008Z,61.70
2022-09-21T05:27:33.260Z,61.97
2022-09-21T05:30:02.184Z,62.02
2022-09-21T05:32:43.884Z,62.22
2022-09-21T05:35:19.935Z,62.25
2022-09-21T05:37:56.608Z,61.78
2022-09-21T05:40:25.672Z,62.02
2022-09-21T05:42:54.421Z,61.93
2022-09-21T05:45:23.400Z,61.45
2022-09-21T05:48:01.210Z,61.91
2022-09-21T05:50:47.669Z,61.46
2022-09-21T05:53:33.977Z,61.72
2022-09-21T05:56:08.218Z,62.34
2022-09-21T05:58:44.864Z,61.52
2022-09-21T06:01:26.339Z,60.66
2022-09-21T06:03:58.084Z,60.62
2022-09-21T06:06:26.474Z,60.61
2022-09-21T06:08:54.615Z,60.57
2022-09-21T06:11:23.121Z,59.92
2022-09-21T06:13:51.325Z,60.03
2022-09-21T06:16:19.671Z,60.06
2022-09-21T06:18:47.895Z,60.19
2022-09-21T06:21:18.480Z,60.01
2022-09-21T06:23:46.827Z,60.09
2022-09-21T06:26:15.043Z,60.17
2022-09-21T06:28:43.305Z,60.25
2022-09-21T06:31:11.540Z,60.36
2022-09-21T06:33:40.049Z,60.75
2022-09-21T06:36:08.484Z,60.23
2022-09-21T06:38:38.160Z,59.75
2022-09-21T06:41:06.953Z,58.57
2022-09-21T06:43:35.177Z,58.67
2022-09-21T06:46:04.265Z,58.71
2022-09-21T06:48:35.513Z,57.96
2022-09-21T06:51:05.509Z,57.64
2022-09-21T06:53:37.260Z,56.67
2022-09-21T06:56:08.643Z,56.93
2022-09-21T06:58:37.941Z,57.08
2022-09-21T07:01:08.709Z,53.62
2022-09-21T07:03:37.815Z,52.19
2022-09-21T07:06:07.012Z,51.05
2022-09-21T07:11:27.580Z,49.44
2022-09-21T07:13:56.063Z,48.45
2022-09-21T07:16:24.622Z,48.38
2022-09-21T07:18:52.874Z,47.27
2022-09-21T07:21:21.231Z,47.66
2022-09-21T07:23:50.956Z,47.37
2022-09-21T07:26:19.658Z,47.21
2022-09-21T07:28:48.702Z,46.27
2022-09-21T07:31:18.647Z,46.28
2022-09-21T07:33:47.747Z,46.06
2022-09-21T07:36:17.872Z,44.69
2022-09-21T07:38:46.385Z,44.77
2022-09-21T07:41:16.546Z,43.57
2022-09-21T07:43:44.748Z,44.12
2022-09-21T07:46:15.936Z,43.67
2022-09-21T07:48:44.481Z,43.77
2022-09-21T07:51:14.483Z,42.93
2022-09-21T07:53:45.460Z,42.33
2022-09-21T07:56:17.079Z,43.95
2022-09-21T07:59:03.053Z,43.00
2022-09-21T08:01:32.242Z,42.23
2022-09-21T08:04:01.337Z,42.24
2022-09-21T08:06:32.972Z,42.68
2022-09-21T08:09:01.544Z,42.00
2022-09-21T08:11:33.735Z,40.04
2022-09-21T08:14:03.950Z,40.41
2022-09-21T08:16:34.224Z,40.38
2022-09-21T08:19:03.229Z,40.51
2022-09-21T08:21:31.501Z,40.23
2022-09-21T08:23:59.744Z,38.99
2022-09-21T08:26:28.094Z,38.01
2022-09-21T08:28:59.017Z,37.17
2022-09-21T08:31:27.949Z,37.25
2022-09-21T08:33:57.401Z,36.39
2022-09-21T08:36:25.920Z,35.43
2022-09-21T08:38:55.234Z,35.35
2022-09-21T08:41:26.499Z,34.69
2022-09-21T08:44:00.998Z,34.72
2022-09-21T08:46:31.039Z,34.47
2022-09-21T08:49:07.126Z,34.04
2022-09-21T08:51:39.550Z,32.61
2022-09-21T08:54:15.220Z,33.20
2022-09-21T08:57:03.965Z,33.29
2022-09-21T08:59:33.256Z,33.41
2022-09-21T09:02:16.267Z,32.29
2022-09-21T09:04:57.165Z,33.54
2022-09-21T09:07:43.697Z,33.59
2022-09-21T09:10:29.672Z,33.58
2022-09-21T09:13:14.272Z,33.96
2022-09-21T09:15:57.083Z,34.24
2022-09-21T09:18:30.770Z,35.08
2022-09-21T09:21:04.603Z,34.25
2022-09-21T09:23:36.174Z,33.30
2022-09-21T09:26:10.132Z,33.03
2022-09-21T09:28:44.950Z,33.27
2022-09-21T09:31:20.506Z,33.07
2022-09-21T09:33:55.596Z,33.30
2022-09-21T09:36:53.927Z,33.72
2022-09-21T09:39:22.570Z,33.69
2022-09-21T09:42:20.051Z,33.92
2022-09-21T09:45:20.746Z,34.06
2022-09-21T09:48:05.344Z,34.26
2022-09-21T09:50:36.417Z,34.04
2022-09-21T09:53:08.421Z,33.42
2022-09-21T09:55:40.212Z,33.15
2022-09-21T09:58:21.297Z,33.16
2022-09-21T10:00:53.306Z,32.56
2022-09-21T10:03:24.567Z,33.02
2022-09-21T10:05:54.294Z,33.13
2022-09-21T10:08:42.157Z,33.44
2022-09-21T10:11:12.331Z,33.83
2022-09-21T10:13:43.218Z,33.76
2022-09-21T10:16:16.944Z,32.73
2022-09-21T10:18:52.621Z,33.33
2022-09-21T10:21:23.819Z,33.32
2022-09-21T10:23:54.400Z,32.08
2022-09-21T10:26:23.834Z,32.75
2022-09-21T10:29:00.751Z,31.92
2022-09-21T10:31:30.510Z,32.22
2022-09-21T10:34:14.425Z,31.64
2022-09-21T10:36:50.136Z,32.35
2022-09-21T10:39:28.280Z,31.88
2022-09-21T10:42:00.832Z,31.70
2022-09-21T10:44:35.877Z,30.92
2022-09-21T10:47:17.065Z,30.37
2022-09-21T10:49:51.406Z,30.65
2022-09-21T10:52:23.424Z,30.54
2022-09-21T10:54:56.479Z,31.87
2022-09-21T10:57:27.135Z,31.57
2022-09-21T10:59:57.384Z,30.44
2022-09-21T11:02:46.699Z,29.02
2022-09-21T11:05:18.800Z,29.45
2022-09-21T11:07:53.475Z,28.71
2022-09-21T11:10:33.982Z,27.60
2022-09-21T11:13:18.571Z,28.04
2022-09-21T11:15:53.418Z,28.40
2022-09-21T11:18:27.813Z,28.22
2022-09-21T11:21:08.376Z,28.83
2022-09-21T11:23:49.907Z,28.02
2022-09-21T11:26:26.166Z,27.72
2022-09-21T11:29:01.293Z,27.58
2022-09-21T11:31:50.680Z,27.71
2022-09-21T11:34:40.393Z,28.52
2022-09-21T11:37:19.590Z,28.30
2022-09-21T11:40:04.521Z,28.40
2022-09-21T11:42:50.182Z,28.46
2022-09-21T11:45:48.442Z,28.24
2022-09-21T11:48:28.875Z,28.53
2022-09-21T11:51:09.643Z,29.33
2022-09-21T11:53:54.241Z,29.29
2022-09-21T11:56:44.330Z,28.61
2022-09-21T11:59:42.480Z,28.20
2022-09-21T12:02:43.558Z,28.30
2022-09-21T12:05:21.419Z,28.28
2022-09-21T12:08:07.939Z,28.02
2022-09-21T12:10:48.051Z,27.32
2022-09-21T12:13:26.096Z,27.64
2022-09-21T12:16:03.061Z,28.37
2022-09-21T12:18:36.457Z,27.90
2022-09-21T12:21:13.949Z,28.20
2022-09-21T12:23:45.028Z,28.30
2022-09-21T12:26:18.817Z,28.70
2022-09-21T12:28:52.543Z,28.37
2022-09-21T12:31:27.615Z,27.66
2022-09-21T12:34:00.324Z,27.68
2022-09-21T12:36:36.998Z,28.10
2022-09-21T12:39:14.550Z,28.47
2022-09-21T12:41:52.375Z,28.19
2022-09-21T12:44:27.272Z,27.85
2022-09-21T12:47:09.495Z,28.53
2022-09-21T12:49:43.432Z,29.40
2022-09-21T12:52:22.498Z,29.08
2022-09-21T12:54:59.303Z,28.61
2022-09-21T12:57:58.785Z,29.00
2022-09-21T13:00:36.341Z,28.80
2022-09-21T13:03:12.772Z,28.30
2022-09-21T13:05:56.748Z,28.88
2022-09-21T13:08:29.831Z,29.54
2022-09-21T13:11:04.673Z,28.25
2022-09-21T13:13:38.598Z,28.94
2022-09-21T13:16:08.462Z,29.11
2022-09-21T13:18:39.266Z,28.44
2022-09-21T13:21:18.689Z,28.23
2022-09-21T13:23:54.633Z,28.86
2022-09-21T13:26:34.063Z,28.75
2022-09-21T13:29:08.101Z,28.29
2022-09-21T13:32:00.446Z,28.49
2022-09-21T13:34:31.355Z,28.51
2022-09-21T13:37:30.905Z,28.88
2022-09-21T13:40:41.650Z,29.07
2022-09-21T13:43:48.228Z,29.89
2022-09-21T13:46:56.228Z,30.15
2022-09-21T13:49:54.866Z,30.23
2022-09-21T13:52:34.662Z,31.01
2022-09-21T13:55:05.987Z,31.71
2022-09-21T13:57:39.539Z,31.87
2022-09-21T14:00:28.491Z,31.44
2022-09-21T14:03:04.373Z,31.47
2022-09-21T14:05:37.328Z,31.15
2022-09-21T14:08:08.907Z,31.62
2022-09-21T14:10:39.466Z,31.88
2022-09-21T14:13:27.464Z,32.17
2022-09-21T14:15:55.806Z,31.54
2022-09-21T14:18:41.363Z,32.22
2022-09-21T14:21:17.685Z,33.09
2022-09-21T14:24:19.757Z,33.33
2022-09-21T14:26:55.360Z,33.04
2022-09-21T14:29:27.444Z,33.71
2022-09-21T14:31:59.597Z,33.40
2022-09-21T14:34:37.709Z,33.49
2022-09-21T14:37:17.157Z,33.17
2022-09-21T14:39:47.500Z,33.43
2022-09-21T14:42:20.657Z,32.69
2022-09-21T14:44:51.683Z,32.20
2022-09-21T14:47:43.830Z,34.20
2022-09-21T14:50:31.693Z,35.00
2022-09-21T14:53:18.300Z,35.27
2022-09-21T14:56:03.986Z,35.48
2022-09-21T14:58:45.191Z,34.81
2022-09-21T15:01:36.605Z,34.75
2022-09-21T15:04:27.624Z,35.14
2022-09-21T15:07:24.817Z,35.85
2022-09-21T15:10:29.821Z,35.68
2022-09-21T15:13:03.413Z,35.42
2022-09-21T15:15:38.497Z,35.34
2022-09-21T15:18:17.949Z,35.36
2022-09-21T15:20:46.332Z,35.50
2022-09-21T15:23:20.651Z,35.58
2022-09-21T15:25:58.989Z,35.99
2022-09-21T15:28:32.785Z,36.43
2022-09-21T15:31:10.848Z,35.50
2022-09-21T15:33:42.253Z,35.86
2022-09-21T15:36:10.632Z,36.24
2022-09-21T15:38:40.471Z,36.92
2022-09-21T15:41:27.707Z,37.61
2022-09-21T15:44:12.920Z,36.88
2022-09-21T15:46:43.441Z,36.92
2022-09-21T15:49:15.410Z,36.28
2022-09-21T15:51:46.480Z,36.60
2022-09-21T15:54:30.101Z,36.80
2022-09-21T15:56:59.453Z,37.58
2022-09-21T15:59:28.600Z,37.24
2022-09-21T16:01:59.769Z,37.66
2022-09-21T16:04:30.090Z,37.49
2022-09-21T16:07:05.771Z,37.96
2022-09-21T16:09:45.160Z,38.27
2022-09-21T16:12:35.113Z,38.27
2022-09-21T16:15:08.117Z,37.53
2022-09-21T16:17:38.788Z,37.18
2022-09-21T16:20:19.915Z,37.28
2022-09-21T16:22:50.889Z,38.21
2022-09-21T16:25:32.594Z,37.82
2022-09-21T16:28:02.579Z,38.22
2022-09-21T16:30:49.133Z,38.45
2022-09-21T16:33:43.998Z,38.61
2022-09-21T16:36:36.721Z,39.03
2022-09-21T16:39:14.190Z,39.29
2022-09-21T16:41:48.556Z,39.93
2022-09-21T16:44:21.017Z,40.80
2022-09-21T16:46:52.736Z,40.75
2022-09-21T16:49:22.065Z,41.23
2022-09-21T16:51:52.275Z,41.38
2022-09-21T16:54:25.348Z,42.29
2022-09-21T16:56:56.595Z,42.46
2022-09-21T16:59:25.790Z,42.51
2022-09-21T17:01:56.717Z,42.53
2022-09-21T17:04:27.666Z,42.79
2022-09-21T17:06:56.489Z,42.85
2022-09-21T17:09:29.818Z,43.36
2022-09-21T17:12:01.731Z,43.95
2022-09-21T17:14:33.044Z,44.07
2022-09-21T17:17:04.088Z,43.88
2022-09-21T17:19:33.073Z,44.68
2022-09-21T17:22:01.280Z,44.72
2022-09-21T17:24:49.286Z,45.30
2022-09-21T17:27:21.463Z,45.81
2022-09-21T17:29:50.741Z,46.51
2022-09-21T17:32:21.287Z,46.93
2022-09-21T17:34:56.454Z,47.34
2022-09-21T17:37:25.410Z,48.33
2022-09-21T17:39:54.410Z,48.71
2022-09-21T17:42:25.997Z,49.41
2022-09-21T17:45:05.029Z,50.27
2022-09-21T17:47:34.120Z,51.26
2022-09-21T17:50:16.267Z,51.55
2022-09-21T17:53:02.862Z,52.16
2022-09-21T17:55:32.184Z,52.23
2022-09-21T17:58:17.432Z,52.34
2022-09-21T18:00:54.527Z,52.94
2022-09-21T18:03:24.956Z,53.74
2022-09-21T18:05:59.440Z,54.20
2022-09-21T18:08:28.807Z,54.75
2022-09-21T18:11:04.778Z,54.98
2022-09-21T18:13:44.492Z,55.43
2022-09-21T18:16:27.811Z,55.66
2022-09-21T18:19:05.835Z,55.92
2022-09-21T18:21:38.590Z,56.22
2022-09-21T18:24:20.880Z,56.29
2022-09-21T18:26:52.275Z,56.54
2022-09-21T18:29:40.847Z,56.83
2022-09-21T18:32:32.343Z,57.38
2022-09-21T18:35:17.057Z,57.43
2022-09-21T18:37:57.945Z,57.73
2022-09-21T18:40:34.581Z,58.18
2022-09-21T18:43:13.670Z,57.93
2022-09-21T18:45:48.152Z,57.80
2022-09-21T18:48:29.684Z,57.77
2022-09-21T18:51:06.146Z,58.16
2022-09-21T18:53:42.005Z,58.57
2022-09-21T18:56:12.031Z,58.42
2022-09-21T18:58:41.684Z,58.61
2022-09-21T19:01:13.368Z,57.96
2022-09-21T19:03:44.016Z,57.89
2022-09-21T19:06:26.462Z,57.64
2022-09-21T19:09:03.990Z,57.31
2022-09-21T19:11:38.468Z,57.27
2022-09-21T19:14:15.448Z,55.76
2022-09-21T19:17:00.898Z,55.22
2022-09-21T19:19:37.571Z,54.01
2022-09-21T19:22:26.821Z,53.15
2022-09-21T19:25:02.487Z,53.22
2022-09-21T19:27:42.158Z,53.13
2022-09-21T19:30:13.875Z,53.52
2022-09-21T19:32:46.407Z,54.45
2022-09-21T19:35:21.331Z,54.63
2022-09-21T19:37:51.012Z,54.86
2022-09-21T19:40:24.280Z,54.97
2022-09-21T19:43:20.858Z,54.71
2022-09-21T19:46:07.252Z,52.88
2022-09-21T19:48:43.667Z,50.90
2022-09-21T19:51:19.534Z,49.84
2022-09-21T19:54:12.846Z,48.72
2022-09-21T19:57:04.996Z,49.04
2022-09-21T19:59:50.856Z,49.12
2022-09-21T20:02:23.861Z,48.12
2022-09-21T20:04:57.606Z,48.31
2022-09-21T20:07:35.692Z,46.77
2022-09-21T20:10:45.369Z,48.10
2022-09-21T20:13:23.673Z,49.25
2022-09-21T20:16:00.057Z,50.81
2022-09-21T20:18:37.330Z,51.01
2022-09-21T20:21:15.133Z,50.74
2022-09-21T20:23:45.244Z,50.66
2022-09-21T20:26:24.668Z,50.90
2022-09-21T20:28:53.940Z,51.61
2022-09-21T20:31:23.067Z,51.97
2022-09-21T20:33:51.402Z,52.36
2022-09-21T20:36:21.056Z,52.08
2022-09-21T20:38:49.408Z,51.42
2022-09-21T20:41:19.293Z,50.80
2022-09-21T20:43:47.664Z,51.35
2022-09-21T20:46:16.016Z,51.79
2022-09-21T20:48:44.487Z,52.48
2022-09-21T20:51:12.802Z,53.79
2022-09-21T20:53:42.448Z,54.76
2022-09-21T20:56:12.004Z,55.78
2022-09-21T20:58:40.301Z,56.71
2022-09-21T21:01:10.259Z,56.91
2022-09-21T21:03:38.734Z,57.11
2022-09-21T21:06:11.657Z,56.70
2022-09-21T21:08:40.080Z,55.55
2022-09-21T21:11:10.745Z,55.61
2022-09-21T21:13:40.124Z,55.34
2022-09-21T21:16:12.127Z,55.33
2022-09-21T21:18:41.508Z,55.62
2022-09-21T21:21:10.243Z,55.87
2022-09-21T21:23:52.558Z,56.56
2022-09-21T21:26:33.577Z,57.10
2022-09-21T21:29:10.822Z,57.58
2022-09-21T21:31:40.011Z,57.73
2022-09-21T21:34:08.553Z,58.02
2022-09-21T21:36:38.915Z,58.15
2022-09-21T21:39:07.356Z,58.69
2022-09-21T21:41:37.851Z,58.81
2022-09-21T21:44:06.313Z,59.16
2022-09-21T21:46:34.812Z,58.63
2022-09-21T21:49:03.215Z,57.68
2022-09-21T21:51:32.188Z,57.19
2022-09-21T21:54:00.649Z,57.13
2022-09-21T21:56:29.811Z,57.06
2022-09-21T21:58:59.563Z,57.44
2022-09-21T22:01:32.041Z,58.15
2022-09-21T22:04:03.489Z,58.29
2022-09-21T22:06:33.547Z,58.65
2022-09-21T22:09:03.053Z,58.79
2022-09-21T22:11:32.208Z,58.70
2022-09-21T22:14:03.018Z,58.66
2022-09-21T22:16:32.908Z,58.62
2022-09-21T22:19:04.329Z,58.26
2022-09-21T22:21:34.850Z,57.52
2022-09-21T22:24:05.603Z,57.29
2022-09-21T22:26:38.125Z,56.83
2022-09-21T22:29:10.717Z,56.44
2022-09-21T22:31:41.236Z,56.75
2022-09-21T22:34:10.315Z,56.63
2022-09-21T22:36:39.640Z,56.91
2022-09-21T22:39:09.390Z,57.40
2022-09-21T22:41:40.020Z,57.78
2022-09-21T22:44:10.701Z,58.34
2022-09-21T22:46:40.042Z,58.47
2022-09-21T22:49:08.622Z,58.31
2022-09-21T22:51:38.173Z,58.22
2022-09-21T22:54:06.798Z,58.31
2022-09-21T22:56:36.133Z,58.05
2022-09-21T22:59:06.198Z,57.96
2022-09-21T23:01:37.941Z,58.19
2022-09-21T23:04:09.606Z,58.31
2022-09-21T23:06:39.699Z,58.09
2022-09-21T23:09:13.510Z,58.33
2022-09-21T23:11:46.662Z,58.96
2022-09-21T23:14:15.843Z,59.04
2022-09-21T23:16:45.753Z,59.04
2022-09-21T23:19:16.572Z,59.72
2022-09-21T23:21:46.789Z,59.88
2022-09-21T23:24:15.371Z,59.86
2022-09-21T23:26:44.108Z,60.13
2022-09-21T23:29:14.492Z,60.86
2022-09-21T23:31:45.562Z,60.86
2022-09-21T23:34:16.728Z,60.33
2022-09-21T23:36:46.254Z,59.49
2022-09-21T23:39:16.188Z,60.11
2022-09-21T23:41:44.990Z,60.41
2022-09-21T23:44:13.317Z,60.08
2022-09-21T23:46:42.197Z,60.59
2022-09-21T23:49:11.036Z,60.59
2022-09-21T23:51:40.900Z,60.93
2022-09-21T23:54:09.277Z,60.87
2022-09-21T23:56:38.069Z,60.98
2022-09-21T23:59:06.945Z,61.46
